createdAt,value
2022-09-26T00:01:44.504Z,5.93
2022-09-26T00:04:22.350Z,5.00
2022-09-26T00:06:52.765Z,6.93
2022-09-26T00:09:21.430Z,5.37
2022-09-26T00:11:50.192Z,4.43
2022-09-26T00:14:21.360Z,6.20
2022-09-26T00:16:51.425Z,5.07
2022-09-26T00:19:20.176Z,7.90
2022-09-26T00:21:48.872Z,6.97
2022-09-26T00:24:17.622Z,6.63
2022-09-26T00:26:45.970Z,8.83
2022-09-26T00:29:14.617Z,7.70
2022-09-26T00:31:44.811Z,6.07
2022-09-26T00:36:58.272Z,6.17
2022-09-26T00:39:26.584Z,5.17
2022-09-26T00:41:54.999Z,9.47
2022-09-26T00:45:02.308Z,8.07
2022-09-26T00:47:43.282Z,5.00
2022-09-26T00:50:19.556Z,5.93
2022-09-26T00:52:52.370Z,4.90
2022-09-26T00:55:24.954Z,7.57
2022-09-26T00:57:59.362Z,4.80
2022-09-26T01:00:28.265Z,8.57
2022-09-26T01:02:56.991Z,6.20
2022-09-26T01:05:27.285Z,5.33
2022-09-26T01:07:57.316Z,6.83
2022-09-26T01:10:27.569Z,5.60
2022-09-26T01:12:57.898Z,3.87
2022-09-26T01:15:26.532Z,6.13
2022-09-26T01:17:54.982Z,5.70
2022-09-26T01:20:46.705Z,5.00
2022-09-26T01:23:49.722Z,5.43
2022-09-26T01:26:50.800Z,5.13
2022-09-26T01:30:02.311Z,5.30
2022-09-26T01:32:59.779Z,5.30
2022-09-26T01:35:43.625Z,5.33
2022-09-26T01:38:23.999Z,7.13
2022-09-26T01:41:05.221Z,6.63
2022-09-26T01:43:41.804Z,8.67
2022-09-26T01:46:21.050Z,6.13
2022-09-26T01:48:55.832Z,7.90
2022-09-26T01:51:31.025Z,4.87
2022-09-26T01:54:03.929Z,6.93
2022-09-26T01:56:37.935Z,5.93
2022-09-26T01:59:09.813Z,7.47
2022-09-26T02:01:43.821Z,6.13
2022-09-26T02:04:20.106Z,6.87
2022-09-26T02:06:52.855Z,5.20
2022-09-26T02:09:27.099Z,6.93
2022-09-26T02:12:02.995Z,6.67
2022-09-26T02:14:35.790Z,6.83
2022-09-26T02:17:09.864Z,7.30
2022-09-26T02:19:46.764Z,5.87
2022-09-26T02:22:16.583Z,5.07
2022-09-26T02:24:44.872Z,5.43
2022-09-26T02:27:14.796Z,6.90
2022-09-26T02:29:45.279Z,6.03
2022-09-26T02:32:19.031Z,5.63
2022-09-26T02:34:50.102Z,5.17
2022-09-26T02:37:21.857Z,5.37
2022-09-26T02:39:53.132Z,7.20
2022-09-26T02:42:36.437Z,4.77
2022-09-26T02:45:21.616Z,4.30
2022-09-26T02:48:17.932Z,6.23
2022-09-26T02:51:01.860Z,7.60
2022-09-26T02:53:54.704Z,6.87
2022-09-26T02:56:39.393Z,7.30
2022-09-26T02:59:19.081Z,5.33
2022-09-26T03:02:07.333Z,9.67
2022-09-26T03:04:44.085Z,5.23
2022-09-26T03:07:20.379Z,9.93
2022-09-26T03:09:52.318Z,8.00
2022-09-26T03:12:21.482Z,6.00
2022-09-26T03:14:55.408Z,5.53
2022-09-26T03:17:28.988Z,6.47
2022-09-26T03:20:05.649Z,7.20
2022-09-26T03:22:38.697Z,5.23
2022-09-26T03:25:10.215Z,5.67
2022-09-26T03:27:45.075Z,4.27
2022-09-26T03:30:15.952Z,5.17
2022-09-26T03:32:53.587Z,5.40
2022-09-26T03:35:22.019Z,7.13
2022-09-26T03:37:51.669Z,6.30
2022-09-26T03:40:20.312Z,4.40
2022-09-26T03:43:24.235Z,6.93
2022-09-26T03:45:55.012Z,7.63
2022-09-26T03:48:27.302Z,4.60
2022-09-26T03:50:56.015Z,5.70
2022-09-26T03:53:25.864Z,7.43
2022-09-26T03:55:54.298Z,5.43
2022-09-26T03:58:22.533Z,7.83
2022-09-26T04:00:51.439Z,5.50
2022-09-26T04:03:21.329Z,4.70
2022-09-26T04:05:49.710Z,6.23
2022-09-26T04:08:18.727Z,6.57
2022-09-26T04:10:48.305Z,7.07
2022-09-26T04:13:39.718Z,5.13
2022-09-26T04:16:06.824Z,6.60
2022-09-26T04:18:36.854Z,5.07
2022-09-26T04:21:11.166Z,4.87
2022-09-26T04:23:40.896Z,4.83
2022-09-26T04:26:12.578Z,5.67
2022-09-26T04:28:42.050Z,4.80
2022-09-26T04:31:12.191Z,7.90
2022-09-26T04:33:43.099Z,4.80
2022-09-26T04:36:13.443Z,7.13
2022-09-26T04:38:42.002Z,6.10
2022-09-26T04:41:16.229Z,6.53
2022-09-26T04:43:45.113Z,5.47
2022-09-26T04:46:20.802Z,5.90
2022-09-26T04:48:52.979Z,8.00
2022-09-26T04:51:25.836Z,6.07
2022-09-26T04:53:54.574Z,6.20
2022-09-26T04:56:29.008Z,6.13
2022-09-26T04:58:59.242Z,6.17
2022-09-26T05:01:35.354Z,6.53
2022-09-26T05:04:15.283Z,8.97
2022-09-26T05:06:45.353Z,4.57
2022-09-26T05:09:26.199Z,5.27
2022-09-26T05:12:08.202Z,5.47
2022-09-26T05:14:38.938Z,5.03
2022-09-26T05:17:27.717Z,5.83
2022-09-26T05:20:00.984Z,6.47
2022-09-26T05:22:52.865Z,6.60
2022-09-26T05:25:38.613Z,7.60
2022-09-26T05:28:08.260Z,8.83
2022-09-26T05:30:40.941Z,6.00
2022-09-26T05:33:12.575Z,5.43
2022-09-26T05:35:41.552Z,4.87
2022-09-26T05:38:09.897Z,5.87
2022-09-26T05:40:57.379Z,4.43
2022-09-26T05:43:30.773Z,5.27
2022-09-26T05:46:14.132Z,6.47
2022-09-26T05:48:53.499Z,5.90
2022-09-26T05:51:32.111Z,3.93
2022-09-26T05:54:11.708Z,5.20
2022-09-26T05:57:15.408Z,3.40
2022-09-26T06:00:03.588Z,5.40
2022-09-26T06:03:05.814Z,4.97
2022-09-26T06:06:28.305Z,5.97
2022-09-26T06:09:21.402Z,5.73
2022-09-26T06:12:31.441Z,6.27
2022-09-26T06:15:33.551Z,6.03
2022-09-26T06:18:32.974Z,6.23
2022-09-26T06:21:23.445Z,7.20
2022-09-26T06:24:17.511Z,7.20
2022-09-26T06:27:46.929Z,4.30
2022-09-26T06:30:37.215Z,6.03
2022-09-26T06:34:02.930Z,5.50
2022-09-26T06:57:04.419Z,6.73
2022-09-26T06:59:34.354Z,6.90
2022-09-26T07:02:12.007Z,5.33
2022-09-26T07:05:05.736Z,6.53
2022-09-26T07:07:58.477Z,7.63
2022-09-26T07:10:31.935Z,6.03
2022-09-26T07:13:09.405Z,5.13
2022-09-26T07:15:40.145Z,7.10
2022-09-26T07:21:22.749Z,6.27
2022-09-26T07:24:02.601Z,6.37
2022-09-26T07:26:31.307Z,5.43
2022-09-26T07:29:01.236Z,5.40
2022-09-26T07:31:31.076Z,7.83
2022-09-26T07:34:05.702Z,5.20
2022-09-26T07:36:34.873Z,5.73
2022-09-26T07:39:03.261Z,7.50
2022-09-26T07:41:31.593Z,7.00
2022-09-26T07:47:22.296Z,8.30
2022-09-26T07:50:08.634Z,3.40
2022-09-26T07:52:57.093Z,4.70
2022-09-26T07:55:27.979Z,5.10
2022-09-26T07:58:14.977Z,5.63
2022-09-26T08:01:06.789Z,6.63
2022-09-26T08:04:14.256Z,9.07
2022-09-26T08:06:42.950Z,5.37
2022-09-26T08:09:20.594Z,5.90
2022-09-26T08:12:07.646Z,4.33
2022-09-26T08:14:54.952Z,4.63
2022-09-26T08:17:38.184Z,4.00
2022-09-26T08:20:07.747Z,5.03
2022-09-26T08:22:36.205Z,7.60
2022-09-26T08:25:06.864Z,5.30
2022-09-26T08:28:05.126Z,3.27
2022-09-26T08:30:33.918Z,7.73
2022-09-26T08:33:07.992Z,4.37
2022-09-26T08:35:39.538Z,8.50
2022-09-26T08:38:36.439Z,5.67
2022-09-26T08:41:49.841Z,5.70
2022-09-26T08:45:00.013Z,7.77
2022-09-26T08:47:48.359Z,5.83
2022-09-26T08:50:33.245Z,7.00
2022-09-26T08:53:06.060Z,5.23
2022-09-26T08:55:48.000Z,5.70
2022-09-26T08:58:21.682Z,7.90
2022-09-26T09:01:02.966Z,5.60
2022-09-26T09:03:39.275Z,6.37
2022-09-26T09:06:14.593Z,7.13
2022-09-26T09:08:47.569Z,6.20
2022-09-26T09:12:01.005Z,5.07
2022-09-26T09:15:24.200Z,5.07
2022-09-26T09:18:21.516Z,6.70
2022-09-26T09:21:24.537Z,5.40
2022-09-26T09:24:19.372Z,6.67
2022-09-26T09:30:15.302Z,4.97
2022-09-26T09:33:00.393Z,6.73
2022-09-26T09:35:51.128Z,4.97
2022-09-26T09:38:49.919Z,7.37
2022-09-26T09:41:47.424Z,4.83
2022-09-26T09:44:28.730Z,4.07
2022-09-26T09:46:57.073Z,4.07
2022-09-26T09:49:26.203Z,2.40
2022-09-26T09:52:09.059Z,3.10
2022-09-26T09:54:47.875Z,4.37
2022-09-26T09:57:41.569Z,3.20
2022-09-26T10:00:17.757Z,3.40
2022-09-26T10:03:01.566Z,3.13
2022-09-26T10:05:39.259Z,4.70
2022-09-26T10:08:14.178Z,2.70
2022-09-26T10:11:42.319Z,3.83
2022-09-26T10:14:39.606Z,2.07
2022-09-26T10:17:22.665Z,3.00
2022-09-26T10:20:04.013Z,1.77
2022-09-26T10:22:56.175Z,3.43
2022-09-26T10:25:29.912Z,2.77
2022-09-26T10:28:01.237Z,3.20
2022-09-26T10:30:33.210Z,2.37
2022-09-26T10:33:06.145Z,3.67
2022-09-26T10:35:44.277Z,2.03
2022-09-26T10:38:22.506Z,2.90
2022-09-26T10:41:03.625Z,3.07
2022-09-26T10:43:38.542Z,2.10
2022-09-26T10:46:25.197Z,2.33
2022-09-26T10:49:15.641Z,3.30
2022-09-26T10:52:20.796Z,2.43
2022-09-26T10:54:55.537Z,3.07
2022-09-26T10:57:28.574Z,2.93
2022-09-26T11:00:06.558Z,2.83
2022-09-26T11:02:36.252Z,3.77
2022-09-26T11:05:25.398Z,4.10
2022-09-26T11:08:25.825Z,3.70
2022-09-26T11:11:17.587Z,3.67
2022-09-26T11:14:27.384Z,2.23
2022-09-26T11:17:03.797Z,1.37
2022-09-26T11:19:45.469Z,3.47
2022-09-26T11:22:22.187Z,3.27
2022-09-26T11:25:00.839Z,2.90
2022-09-26T11:30:26.236Z,3.60
2022-09-26T11:33:05.426Z,4.70
2022-09-26T11:36:11.009Z,4.73
2022-09-26T11:38:47.741Z,2.63
2022-09-26T11:41:42.039Z,2.60
2022-09-26T11:44:29.140Z,3.60
2022-09-26T11:48:06.981Z,2.03
2022-09-26T11:51:14.870Z,2.10
2022-09-26T11:53:58.332Z,1.60
2022-09-26T11:57:01.643Z,3.50
2022-09-26T11:59:50.295Z,8.13
2022-09-26T12:02:38.214Z,7.73
2022-09-26T12:05:27.163Z,6.27
2022-09-26T12:08:08.593Z,6.13
2022-09-26T12:10:43.807Z,5.40
2022-09-26T12:13:24.925Z,3.73
2022-09-26T12:15:58.872Z,3.53
2022-09-26T12:18:36.786Z,5.40
2022-09-26T12:24:12.438Z,7.43
2022-09-26T12:26:47.198Z,8.80
2022-09-26T12:29:29.325Z,7.53
2022-09-26T12:32:21.659Z,8.93
2022-09-26T12:35:16.132Z,12.10
2022-09-26T12:38:00.121Z,10.53
2022-09-26T12:40:36.546Z,12.30
2022-09-26T12:43:36.149Z,10.40
2022-09-26T12:46:24.445Z,13.20
2022-09-26T12:49:09.516Z,7.83
2022-09-26T12:51:43.923Z,6.33
2022-09-26T12:54:49.732Z,12.80
2022-09-26T12:57:30.834Z,10.60
2022-09-26T13:00:20.204Z,8.77
2022-09-26T13:03:27.756Z,8.80
2022-09-26T13:06:21.192Z,10.90
2022-09-26T13:09:00.849Z,11.67
2022-09-26T13:11:42.771Z,10.10
2022-09-26T13:14:30.785Z,12.27
2022-09-26T13:17:10.455Z,10.63
2022-09-26T13:19:44.563Z,14.00
2022-09-26T13:22:27.384Z,12.10
2022-09-26T13:25:02.017Z,12.00
2022-09-26T13:27:38.304Z,17.40
2022-09-26T13:30:16.891Z,13.30
2022-09-26T13:32:54.913Z,12.17
2022-09-26T13:35:25.272Z,16.37
2022-09-26T13:38:10.958Z,13.17
2022-09-26T13:40:45.356Z,18.43
2022-09-26T13:43:27.245Z,14.07
2022-09-26T13:46:03.686Z,14.00
2022-09-26T13:48:50.071Z,15.77
2022-09-26T13:51:22.341Z,14.00
2022-09-26T13:54:04.996Z,13.33
2022-09-26T13:56:55.961Z,13.47
2022-09-26T13:59:51.442Z,14.40
2022-09-26T14:02:24.933Z,15.43
2022-09-26T14:04:54.867Z,17.03
2022-09-26T14:08:04.804Z,13.97
2022-09-26T14:10:38.780Z,17.90
2022-09-26T14:13:20.489Z,16.70
2022-09-26T14:16:01.285Z,17.97
2022-09-26T14:18:53.302Z,21.83
2022-09-26T14:21:39.982Z,16.33
2022-09-26T14:24:31.717Z,17.00
2022-09-26T14:27:06.985Z,19.33
2022-09-26T14:29:49.064Z,21.83
2022-09-26T14:32:19.998Z,20.70
2022-09-26T14:34:56.013Z,23.37
2022-09-26T14:37:34.040Z,20.10
2022-09-26T14:40:25.958Z,19.17
2022-09-26T14:42:58.760Z,20.17
2022-09-26T14:45:45.511Z,21.23
2022-09-26T14:48:30.279Z,20.43
2022-09-26T14:51:04.036Z,21.03
2022-09-26T14:53:38.823Z,17.30
2022-09-26T14:56:11.123Z,22.43
2022-09-26T14:58:53.072Z,22.20
2022-09-26T15:01:26.823Z,21.00
2022-09-26T15:04:02.901Z,19.47
2022-09-26T15:06:41.723Z,21.10
2022-09-26T15:09:12.907Z,21.40
2022-09-26T15:11:44.716Z,21.53
2022-09-26T15:14:22.886Z,20.67
2022-09-26T15:16:54.376Z,24.73
2022-09-26T15:19:28.091Z,16.37
2022-09-26T15:22:01.760Z,19.67
2022-09-26T15:24:32.897Z,17.23
2022-09-26T15:27:08.248Z,18.90
2022-09-26T15:29:37.067Z,20.47
2022-09-26T15:32:07.152Z,19.00
2022-09-26T15:34:39.709Z,19.63
2022-09-26T15:37:18.842Z,21.00
2022-09-26T15:39:47.149Z,19.83
2022-09-26T15:42:46.495Z,18.53
2022-09-26T15:45:29.771Z,21.93
2022-09-26T15:47:59.525Z,25.37
2022-09-26T15:50:41.391Z,24.30
2022-09-26T15:53:21.633Z,21.43
2022-09-26T15:55:53.358Z,20.97
2022-09-26T15:58:26.228Z,23.23
2022-09-26T16:03:48.705Z,19.00
2022-09-26T16:06:28.259Z,17.67
2022-09-26T16:09:02.360Z,23.20
2022-09-26T16:11:32.869Z,23.43
2022-09-26T16:14:02.209Z,21.47
2022-09-26T16:16:35.548Z,18.73
2022-09-26T16:19:04.982Z,19.77
2022-09-26T16:21:36.553Z,23.13
2022-09-26T16:24:32.395Z,18.13
2022-09-26T16:27:01.705Z,21.97
2022-09-26T16:29:35.173Z,16.27
2022-09-26T16:32:05.282Z,21.50
2022-09-26T16:34:34.262Z,19.70
2022-09-26T16:37:04.681Z,18.00
2022-09-26T16:39:34.670Z,19.37
2022-09-26T16:42:05.954Z,24.87
2022-09-26T16:44:37.391Z,21.47
2022-09-26T16:47:36.767Z,21.50
2022-09-26T16:50:20.063Z,15.63
2022-09-26T16:52:48.635Z,16.97
2022-09-26T16:55:18.623Z,14.67
2022-09-26T16:57:53.318Z,16.23
2022-09-26T17:00:42.664Z,16.67
2022-09-26T17:03:22.897Z,17.43
2022-09-26T17:05:52.911Z,16.70
2022-09-26T17:08:22.008Z,17.03
2022-09-26T17:10:52.184Z,15.37
2022-09-26T17:13:23.719Z,18.63
2022-09-26T17:15:55.589Z,13.87
2022-09-26T17:18:29.286Z,18.10
2022-09-26T17:21:00.304Z,14.30
2022-09-26T17:23:43.462Z,16.93
2022-09-26T17:26:21.604Z,18.60
2022-09-26T17:28:52.937Z,20.73
2022-09-26T17:31:23.181Z,18.00
2022-09-26T17:33:55.619Z,19.07
2022-09-26T17:36:30.794Z,19.40
2022-09-26T17:39:02.864Z,18.20
2022-09-26T17:41:34.538Z,17.90
2022-09-26T17:44:03.500Z,16.73
2022-09-26T17:46:32.938Z,17.03
2022-09-26T17:49:12.534Z,14.80
2022-09-26T17:51:43.133Z,16.90
2022-09-26T17:54:42.634Z,16.83
2022-09-26T17:57:15.456Z,19.97
2022-09-26T17:59:43.909Z,16.90
2022-09-26T18:02:20.321Z,16.60
2022-09-26T18:04:50.868Z,23.27
2022-09-26T18:07:20.381Z,17.47
2022-09-26T18:09:53.802Z,18.87
2022-09-26T18:12:25.544Z,19.80
2022-09-26T18:15:04.744Z,15.73
2022-09-26T18:17:33.347Z,16.67
2022-09-26T18:20:02.539Z,14.13
2022-09-26T18:22:37.404Z,14.90
2022-09-26T18:25:09.563Z,17.40
2022-09-26T18:27:40.790Z,15.60
2022-09-26T18:30:14.918Z,16.33
2022-09-26T18:32:47.438Z,16.40
2022-09-26T18:35:17.219Z,14.80
2022-09-26T18:37:55.376Z,16.83
2022-09-26T18:40:25.791Z,17.30
2022-09-26T18:42:58.289Z,15.03
2022-09-26T18:45:29.815Z,16.87
2022-09-26T18:47:58.328Z,14.23
2022-09-26T18:50:34.236Z,21.37
2022-09-26T18:53:03.109Z,19.03
2022-09-26T18:55:56.604Z,13.17
2022-09-26T18:58:27.778Z,16.03
2022-09-26T19:03:48.251Z,17.53
2022-09-26T19:06:26.766Z,19.40
2022-09-26T19:08:59.577Z,14.90
2022-09-26T19:11:32.608Z,15.43
2022-09-26T19:14:12.556Z,19.80
2022-09-26T19:16:55.096Z,18.27
2022-09-26T19:19:24.886Z,18.93
2022-09-26T19:21:58.162Z,19.43
2022-09-26T19:25:07.611Z,18.93
2022-09-26T19:27:42.845Z,19.03
2022-09-26T19:30:17.722Z,19.73
2022-09-26T19:32:49.289Z,16.33
2022-09-26T19:35:24.144Z,18.23
2022-09-26T19:37:53.076Z,17.50
2022-09-26T19:40:23.151Z,22.53
2022-09-26T19:42:51.897Z,15.63
2022-09-26T19:45:23.033Z,18.77
2022-09-26T19:47:57.335Z,15.37
2022-09-26T19:50:27.317Z,18.63
2022-09-26T19:52:58.413Z,17.30
2022-09-26T19:55:29.328Z,18.47
2022-09-26T20:00:52.677Z,19.70
2022-09-26T20:03:22.501Z,16.87
2022-09-26T20:05:51.413Z,18.93
2022-09-26T20:08:22.150Z,15.67
2022-09-26T20:10:51.086Z,20.67
2022-09-26T20:13:20.488Z,16.77
2022-09-26T20:15:52.079Z,18.13
2022-09-26T20:18:23.549Z,15.60
2022-09-26T20:23:37.510Z,18.67
2022-09-26T20:26:12.970Z,18.77
2022-09-26T20:28:41.449Z,18.67
2022-09-26T20:31:21.583Z,18.60
2022-09-26T20:33:51.410Z,15.53
2022-09-26T20:36:26.734Z,13.63
2022-09-26T20:38:57.717Z,17.17
2022-09-26T20:41:32.998Z,19.00
2022-09-26T20:44:06.394Z,17.53
2022-09-26T20:46:40.177Z,18.47
2022-09-26T20:49:14.826Z,18.00
2022-09-26T20:51:47.535Z,14.80
2022-09-26T20:54:28.048Z,16.27
2022-09-26T20:56:58.149Z,16.43
2022-09-26T20:59:29.567Z,17.27
2022-09-26T21:02:01.577Z,16.23
2022-09-26T21:04:32.795Z,17.40
2022-09-26T21:07:01.362Z,18.30
2022-09-26T21:09:29.928Z,15.00
2022-09-26T21:12:19.391Z,15.93
2022-09-26T21:14:47.869Z,15.50
2022-09-26T21:17:20.854Z,13.93
2022-09-26T21:20:16.455Z,13.50
2022-09-26T21:23:05.066Z,15.43
2022-09-26T21:25:34.351Z,16.00
2022-09-26T21:28:07.600Z,13.97
2022-09-26T21:30:36.110Z,14.97
2022-09-26T21:33:05.782Z,17.37
2022-09-26T21:35:34.055Z,13.20
2022-09-26T21:38:02.481Z,14.37
2022-09-26T21:40:33.736Z,16.80
2022-09-26T21:43:08.538Z,12.50
2022-09-26T21:45:40.144Z,17.77
2022-09-26T21:48:10.033Z,18.23
2022-09-26T21:50:41.965Z,14.33
2022-09-26T21:53:13.766Z,17.27
2022-09-26T21:55:47.796Z,16.33
2022-09-26T21:58:19.265Z,15.83
2022-09-26T22:00:47.568Z,16.10
2022-09-26T22:03:17.566Z,18.30
2022-09-26T22:05:45.821Z,11.20
2022-09-26T22:08:14.103Z,14.03
2022-09-26T22:10:42.721Z,15.13
2022-09-26T22:13:10.984Z,15.73
2022-09-26T22:15:39.388Z,12.97
2022-09-26T22:18:07.776Z,14.53
2022-09-26T22:20:37.717Z,14.27
2022-09-26T22:23:06.636Z,11.60
2022-09-26T22:25:38.580Z,13.87
2022-09-26T22:28:09.175Z,19.20
2022-09-26T22:30:40.329Z,16.13
2022-09-26T22:33:08.677Z,12.53
2022-09-26T22:35:38.331Z,13.57
2022-09-26T22:38:06.635Z,15.57
2022-09-26T22:40:34.964Z,13.30
2022-09-26T22:43:03.281Z,12.33
2022-09-26T22:45:31.656Z,13.23
2022-09-26T22:47:59.992Z,14.27
2022-09-26T22:50:28.787Z,11.43
2022-09-26T22:53:00.987Z,13.50
2022-09-26T22:55:29.698Z,13.93
2022-09-26T22:57:58.771Z,14.40
2022-09-26T23:00:27.851Z,13.97
2022-09-26T23:02:56.935Z,12.67
2022-09-26T23:05:25.338Z,12.93
2022-09-26T23:07:54.632Z,15.83
2022-09-26T23:10:24.491Z,14.80
2022-09-26T23:12:52.832Z,13.70
2022-09-26T23:15:21.180Z,13.17
2022-09-26T23:17:49.435Z,15.80
2022-09-26T23:20:17.996Z,15.67
2022-09-26T23:22:46.282Z,14.90
2022-09-26T23:25:14.587Z,15.33
2022-09-26T23:27:44.222Z,13.63
2022-09-26T23:30:13.858Z,12.80
2022-09-26T23:33:02.524Z,13.90
2022-09-26T23:35:30.980Z,17.63
2022-09-26T23:37:59.294Z,8.63
2022-09-26T23:40:29.439Z,10.87
2022-09-26T23:42:59.473Z,14.40
2022-09-26T23:45:27.881Z,10.73
2022-09-26T23:47:56.154Z,10.87
2022-09-26T23:50:24.544Z,13.60
2022-09-26T23:52:53.461Z,9.50
2022-09-26T23:55:21.770Z,9.93
2022-09-26T23:57:50.076Z,9.57
